sensor_id;sensor_type;location;lat;lon;timestamp;P1;durP1;ratioP1;P2;durP2;ratioP2
6348;SDS011;3207;42.648;23.406;2023-07-31T00:00:19;2.70;;;2.10;;
6348;SDS011;3207;42.648;23.406;2023-07-31T00:02:46;3.72;;;2.10;;
6348;SDS011;3207;42.648;23.406;2023-07-31T00:05:13;4.97;;;2.78;;
6348;SDS011;3207;42.648;23.406;2023-07-31T00:07:39;4.95;;;3.10;;
6348;SDS011;3207;42.648;23.406;2023-07-31T00:10:08;6.57;;;3.47;;
6348;SDS011;3207;42.648;23.406;2023-07-31T00:12:35;7.18;;;2.85;;
6348;SDS011;3207;42.648;23.406;2023-07-31T00:15:02;3.03;;;2.30;;
6348;SDS011;3207;42.648;23.406;2023-07-31T00:17:30;7.07;;;2.20;;
6348;SDS011;3207;42.648;23.406;2023-07-31T00:19:56;4.13;;;2.50;;
6348;SDS011;3207;42.648;23.406;2023-07-31T00:22:23;4.68;;;2.40;;
6348;SDS011;3207;42.648;23.406;2023-07-31T00:24:51;3.65;;;1.90;;
6348;SDS011;3207;42.648;23.406;2023-07-31T00:27:21;4.15;;;2.03;;
6348;SDS011;3207;42.648;23.406;2023-07-31T00:29:48;4.35;;;2.10;;
6348;SDS011;3207;42.648;23.406;2023-07-31T00:32:15;2.95;;;1.95;;
6348;SDS011;3207;42.648;23.406;2023-07-31T00:34:42;1.70;;;1.60;;
6348;SDS011;3207;42.648;23.406;2023-07-31T00:37:08;4.53;;;2.22;;
6348;SDS011;3207;42.648;23.406;2023-07-31T00:39:35;2.70;;;2.00;;
6348;SDS011;3207;42.648;23.406;2023-07-31T00:42:02;2.92;;;2.03;;
6348;SDS011;3207;42.648;23.406;2023-07-31T00:44:31;5.65;;;2.38;;
6348;SDS011;3207;42.648;23.406;2023-07-31T00:46:58;3.47;;;1.75;;
6348;SDS011;3207;42.648;23.406;2023-07-31T00:49:25;2.47;;;1.52;;
6348;SDS011;3207;42.648;23.406;2023-07-31T00:51:53;3.83;;;1.80;;
6348;SDS011;3207;42.648;23.406;2023-07-31T00:54:22;7.32;;;1.73;;
6348;SDS011;3207;42.648;23.406;2023-07-31T00:56:49;2.35;;;1.83;;
6348;SDS011;3207;42.648;23.406;2023-07-31T00:59:19;2.95;;;2.00;;
6348;SDS011;3207;42.648;23.406;2023-07-31T01:01:47;4.43;;;2.00;;
6348;SDS011;3207;42.648;23.406;2023-07-31T01:04:14;1.95;;;1.85;;
6348;SDS011;3207;42.648;23.406;2023-07-31T01:06:46;4.60;;;1.42;;
6348;SDS011;3207;42.648;23.406;2023-07-31T01:09:20;6.22;;;2.42;;
6348;SDS011;3207;42.648;23.406;2023-07-31T01:11:56;2.28;;;1.63;;
6348;SDS011;3207;42.648;23.406;2023-07-31T01:14:26;5.38;;;1.90;;
6348;SDS011;3207;42.648;23.406;2023-07-31T01:16:54;3.58;;;1.50;;
6348;SDS011;3207;42.648;23.406;2023-07-31T01:19:22;3.90;;;1.90;;
6348;SDS011;3207;42.648;23.406;2023-07-31T01:22:01;13.50;;;2.58;;
6348;SDS011;3207;42.648;23.406;2023-07-31T01:24:59;2.42;;;1.58;;
6348;SDS011;3207;42.648;23.406;2023-07-31T01:27:40;2.50;;;1.98;;
6348;SDS011;3207;42.648;23.406;2023-07-31T01:30:15;4.57;;;1.48;;
6348;SDS011;3207;42.648;23.406;2023-07-31T01:32:45;2.95;;;2.05;;
6348;SDS011;3207;42.648;23.406;2023-07-31T01:35:14;2.03;;;1.52;;
6348;SDS011;3207;42.648;23.406;2023-07-31T01:37:41;7.35;;;1.65;;
6348;SDS011;3207;42.648;23.406;2023-07-31T01:40:08;9.40;;;1.40;;
6348;SDS011;3207;42.648;23.406;2023-07-31T01:42:35;1.45;;;1.35;;
6348;SDS011;3207;42.648;23.406;2023-07-31T01:45:04;5.25;;;1.63;;
6348;SDS011;3207;42.648;23.406;2023-07-31T01:47:32;2.35;;;1.20;;
6348;SDS011;3207;42.648;23.406;2023-07-31T01:49:58;2.53;;;1.30;;
6348;SDS011;3207;42.648;23.406;2023-07-31T01:52:25;4.35;;;1.48;;
6348;SDS011;3207;42.648;23.406;2023-07-31T01:54:52;2.92;;;1.13;;
6348;SDS011;3207;42.648;23.406;2023-07-31T01:57:19;2.75;;;1.50;;
6348;SDS011;3207;42.648;23.406;2023-07-31T01:59:45;1.35;;;1.08;;
6348;SDS011;3207;42.648;23.406;2023-07-31T02:02:14;2.95;;;1.45;;
6348;SDS011;3207;42.648;23.406;2023-07-31T02:04:40;2.47;;;1.70;;
6348;SDS011;3207;42.648;23.406;2023-07-31T02:07:07;3.13;;;1.70;;
6348;SDS011;3207;42.648;23.406;2023-07-31T02:09:34;2.97;;;1.45;;
6348;SDS011;3207;42.648;23.406;2023-07-31T02:12:01;3.22;;;1.38;;
6348;SDS011;3207;42.648;23.406;2023-07-31T02:14:28;1.17;;;1.05;;
6348;SDS011;3207;42.648;23.406;2023-07-31T02:16:54;4.43;;;1.60;;
6348;SDS011;3207;42.648;23.406;2023-07-31T02:19:22;3.17;;;1.17;;
6348;SDS011;3207;42.648;23.406;2023-07-31T02:21:49;2.45;;;1.55;;
6348;SDS011;3207;42.648;23.406;2023-07-31T02:24:16;5.85;;;1.70;;
6348;SDS011;3207;42.648;23.406;2023-07-31T02:26:43;3.45;;;1.65;;
6348;SDS011;3207;42.648;23.406;2023-07-31T02:29:09;2.22;;;1.20;;
6348;SDS011;3207;42.648;23.406;2023-07-31T02:31:36;4.93;;;2.15;;
6348;SDS011;3207;42.648;23.406;2023-07-31T02:34:03;3.63;;;1.85;;
6348;SDS011;3207;42.648;23.406;2023-07-31T02:36:31;2.00;;;1.80;;
6348;SDS011;3207;42.648;23.406;2023-07-31T02:38:58;4.13;;;2.15;;
6348;SDS011;3207;42.648;23.406;2023-07-31T02:41:25;3.03;;;1.73;;
6348;SDS011;3207;42.648;23.406;2023-07-31T02:43:51;2.30;;;1.90;;
6348;SDS011;3207;42.648;23.406;2023-07-31T02:46:18;4.35;;;2.53;;
6348;SDS011;3207;42.648;23.406;2023-07-31T02:48:49;3.75;;;1.90;;
6348;SDS011;3207;42.648;23.406;2023-07-31T02:51:16;2.95;;;1.80;;
6348;SDS011;3207;42.648;23.406;2023-07-31T02:53:44;4.00;;;2.03;;
6348;SDS011;3207;42.648;23.406;2023-07-31T02:56:11;2.38;;;1.92;;
6348;SDS011;3207;42.648;23.406;2023-07-31T02:58:38;2.92;;;2.35;;
6348;SDS011;3207;42.648;23.406;2023-07-31T03:01:04;7.00;;;2.17;;
6348;SDS011;3207;42.648;23.406;2023-07-31T03:03:31;4.47;;;2.10;;
6348;SDS011;3207;42.648;23.406;2023-07-31T03:05:58;6.88;;;2.45;;
6348;SDS011;3207;42.648;23.406;2023-07-31T03:08:25;5.78;;;1.90;;
6348;SDS011;3207;42.648;23.406;2023-07-31T03:10:53;6.60;;;1.92;;
6348;SDS011;3207;42.648;23.406;2023-07-31T03:13:20;3.85;;;2.20;;
6348;SDS011;3207;42.648;23.406;2023-07-31T03:15:47;4.80;;;2.20;;
6348;SDS011;3207;42.648;23.406;2023-07-31T03:18:14;7.28;;;2.08;;
6348;SDS011;3207;42.648;23.406;2023-07-31T03:20:42;2.08;;;1.88;;
6348;SDS011;3207;42.648;23.406;2023-07-31T03:23:09;2.80;;;1.70;;
6348;SDS011;3207;42.648;23.406;2023-07-31T03:25:35;2.70;;;1.92;;
6348;SDS011;3207;42.648;23.406;2023-07-31T03:28:04;3.28;;;1.85;;
6348;SDS011;3207;42.648;23.406;2023-07-31T03:30:31;4.40;;;1.90;;
6348;SDS011;3207;42.648;23.406;2023-07-31T03:32:58;4.03;;;1.73;;
6348;SDS011;3207;42.648;23.406;2023-07-31T03:35:25;4.88;;;2.50;;
6348;SDS011;3207;42.648;23.406;2023-07-31T03:37:51;2.45;;;1.60;;
6348;SDS011;3207;42.648;23.406;2023-07-31T03:40:18;3.33;;;1.85;;
6348;SDS011;3207;42.648;23.406;2023-07-31T03:42:45;3.40;;;1.88;;
6348;SDS011;3207;42.648;23.406;2023-07-31T03:45:13;2.90;;;2.05;;
6348;SDS011;3207;42.648;23.406;2023-07-31T03:47:40;3.10;;;1.70;;
6348;SDS011;3207;42.648;23.406;2023-07-31T03:50:07;3.90;;;1.77;;
6348;SDS011;3207;42.648;23.406;2023-07-31T03:52:34;4.03;;;1.75;;
6348;SDS011;3207;42.648;23.406;2023-07-31T03:55:01;10.18;;;2.30;;
6348;SDS011;3207;42.648;23.406;2023-07-31T03:57:27;3.13;;;2.35;;
6348;SDS011;3207;42.648;23.406;2023-07-31T03:59:54;2.17;;;1.65;;
6348;SDS011;3207;42.648;23.406;2023-07-31T04:02:22;5.35;;;2.40;;
6348;SDS011;3207;42.648;23.406;2023-07-31T04:04:49;3.00;;;1.65;;
6348;SDS011;3207;42.648;23.406;2023-07-31T04:07:16;3.70;;;1.60;;
6348;SDS011;3207;42.648;23.406;2023-07-31T04:09:43;2.67;;;1.42;;
6348;SDS011;3207;42.648;23.406;2023-07-31T04:12:09;6.72;;;1.60;;
6348;SDS011;3207;42.648;23.406;2023-07-31T04:14:36;2.22;;;1.67;;
6348;SDS011;3207;42.648;23.406;2023-07-31T04:17:03;2.28;;;1.80;;
6348;SDS011;3207;42.648;23.406;2023-07-31T04:19:31;2.97;;;2.00;;
6348;SDS011;3207;42.648;23.406;2023-07-31T04:21:58;1.60;;;1.50;;
6348;SDS011;3207;42.648;23.406;2023-07-31T04:24:25;3.33;;;1.77;;
6348;SDS011;3207;42.648;23.406;2023-07-31T04:26:51;1.95;;;1.67;;
6348;SDS011;3207;42.648;23.406;2023-07-31T04:29:18;3.90;;;2.22;;
6348;SDS011;3207;42.648;23.406;2023-07-31T04:31:45;3.47;;;2.17;;
6348;SDS011;3207;42.648;23.406;2023-07-31T04:34:13;4.75;;;2.05;;
6348;SDS011;3207;42.648;23.406;2023-07-31T04:36:42;2.90;;;2.25;;
6348;SDS011;3207;42.648;23.406;2023-07-31T04:39:08;3.47;;;2.20;;
6348;SDS011;3207;42.648;23.406;2023-07-31T04:41:35;13.43;;;6.07;;
6348;SDS011;3207;42.648;23.406;2023-07-31T04:44:02;15.60;;;8.18;;
6348;SDS011;3207;42.648;23.406;2023-07-31T04:46:29;21.17;;;10.40;;
6348;SDS011;3207;42.648;23.406;2023-07-31T04:48:56;10.02;;;5.57;;
6348;SDS011;3207;42.648;23.406;2023-07-31T04:51:23;21.67;;;12.05;;
6348;SDS011;3207;42.648;23.406;2023-07-31T04:53:51;17.30;;;6.78;;
6348;SDS011;3207;42.648;23.406;2023-07-31T04:56:18;15.70;;;7.53;;
6348;SDS011;3207;42.648;23.406;2023-07-31T04:58:45;12.65;;;6.20;;
6348;SDS011;3207;42.648;23.406;2023-07-31T05:01:12;20.92;;;9.48;;
6348;SDS011;3207;42.648;23.406;2023-07-31T05:03:38;13.05;;;5.15;;
6348;SDS011;3207;42.648;23.406;2023-07-31T05:06:05;9.68;;;5.53;;
6348;SDS011;3207;42.648;23.406;2023-07-31T05:08:32;9.25;;;4.90;;
6348;SDS011;3207;42.648;23.406;2023-07-31T05:11:00;6.32;;;4.53;;
6348;SDS011;3207;42.648;23.406;2023-07-31T05:13:27;7.55;;;4.18;;
6348;SDS011;3207;42.648;23.406;2023-07-31T05:15:54;5.20;;;4.50;;
6348;SDS011;3207;42.648;23.406;2023-07-31T05:18:21;7.53;;;3.30;;
6348;SDS011;3207;42.648;23.406;2023-07-31T05:20:47;6.85;;;4.00;;
6348;SDS011;3207;42.648;23.406;2023-07-31T05:23:14;6.00;;;3.88;;
6348;SDS011;3207;42.648;23.406;2023-07-31T05:25:41;5.95;;;4.03;;
6348;SDS011;3207;42.648;23.406;2023-07-31T05:28:09;8.10;;;3.80;;
6348;SDS011;3207;42.648;23.406;2023-07-31T05:30:36;5.40;;;3.33;;
6348;SDS011;3207;42.648;23.406;2023-07-31T05:33:02;7.03;;;3.60;;
6348;SDS011;3207;42.648;23.406;2023-07-31T05:35:29;4.60;;;3.78;;
6348;SDS011;3207;42.648;23.406;2023-07-31T05:37:56;10.00;;;3.42;;
6348;SDS011;3207;42.648;23.406;2023-07-31T05:40:23;4.00;;;3.40;;
6348;SDS011;3207;42.648;23.406;2023-07-31T05:42:50;3.38;;;3.08;;
6348;SDS011;3207;42.648;23.406;2023-07-31T05:45:18;5.82;;;2.63;;
6348;SDS011;3207;42.648;23.406;2023-07-31T05:47:45;3.35;;;3.05;;
6348;SDS011;3207;42.648;23.406;2023-07-31T05:50:11;7.43;;;3.50;;
6348;SDS011;3207;42.648;23.406;2023-07-31T05:52:39;10.50;;;3.75;;
6348;SDS011;3207;42.648;23.406;2023-07-31T05:55:06;7.07;;;4.05;;
6348;SDS011;3207;42.648;23.406;2023-07-31T05:57:33;3.42;;;2.95;;
6348;SDS011;3207;42.648;23.406;2023-07-31T06:00:01;7.03;;;3.00;;
6348;SDS011;3207;42.648;23.406;2023-07-31T06:02:29;3.20;;;2.90;;
6348;SDS011;3207;42.648;23.406;2023-07-31T06:04:58;6.10;;;2.42;;
6348;SDS011;3207;42.648;23.406;2023-07-31T06:07:25;5.45;;;2.30;;
6348;SDS011;3207;42.648;23.406;2023-07-31T06:09:52;2.70;;;2.28;;
6348;SDS011;3207;42.648;23.406;2023-07-31T06:12:19;6.85;;;2.28;;
6348;SDS011;3207;42.648;23.406;2023-07-31T06:14:46;3.47;;;2.80;;
6348;SDS011;3207;42.648;23.406;2023-07-31T06:17:13;4.88;;;2.63;;
6348;SDS011;3207;42.648;23.406;2023-07-31T06:19:41;3.03;;;2.03;;
6348;SDS011;3207;42.648;23.406;2023-07-31T06:22:08;2.75;;;2.00;;
6348;SDS011;3207;42.648;23.406;2023-07-31T06:24:35;3.72;;;2.15;;
6348;SDS011;3207;42.648;23.406;2023-07-31T06:27:01;2.58;;;2.15;;
6348;SDS011;3207;42.648;23.406;2023-07-31T06:29:29;4.43;;;2.40;;
6348;SDS011;3207;42.648;23.406;2023-07-31T06:31:56;2.40;;;2.20;;
6348;SDS011;3207;42.648;23.406;2023-07-31T06:34:23;1.83;;;1.73;;
6348;SDS011;3207;42.648;23.406;2023-07-31T06:36:51;1.75;;;1.65;;
6348;SDS011;3207;42.648;23.406;2023-07-31T06:39:18;2.45;;;2.05;;
6348;SDS011;3207;42.648;23.406;2023-07-31T06:41:44;3.97;;;2.38;;
6348;SDS011;3207;42.648;23.406;2023-07-31T06:44:14;2.53;;;2.00;;
6348;SDS011;3207;42.648;23.406;2023-07-31T06:46:41;4.13;;;2.40;;
6348;SDS011;3207;42.648;23.406;2023-07-31T06:49:11;2.30;;;2.10;;
6348;SDS011;3207;42.648;23.406;2023-07-31T06:51:40;5.80;;;2.15;;
6348;SDS011;3207;42.648;23.406;2023-07-31T06:54:08;1.73;;;1.63;;
6348;SDS011;3207;42.648;23.406;2023-07-31T06:56:35;2.30;;;2.10;;
6348;SDS011;3207;42.648;23.406;2023-07-31T06:59:02;2.80;;;2.35;;
6348;SDS011;3207;42.648;23.406;2023-07-31T07:01:29;3.35;;;2.50;;
6348;SDS011;3207;42.648;23.406;2023-07-31T07:03:56;3.85;;;2.38;;
6348;SDS011;3207;42.648;23.406;2023-07-31T07:06:23;5.72;;;1.88;;
6348;SDS011;3207;42.648;23.406;2023-07-31T07:08:49;3.45;;;1.90;;
6348;SDS011;3207;42.648;23.406;2023-07-31T07:11:17;3.30;;;2.00;;
6348;SDS011;3207;42.648;23.406;2023-07-31T07:13:44;2.22;;;1.80;;
6348;SDS011;3207;42.648;23.406;2023-07-31T07:16:11;2.28;;;2.08;;
6348;SDS011;3207;42.648;23.406;2023-07-31T07:18:38;1.88;;;1.75;;
6348;SDS011;3207;42.648;23.406;2023-07-31T07:21:05;3.38;;;2.10;;
6348;SDS011;3207;42.648;23.406;2023-07-31T07:23:32;2.38;;;2.17;;
6348;SDS011;3207;42.648;23.406;2023-07-31T07:25:59;2.67;;;1.98;;
6348;SDS011;3207;42.648;23.406;2023-07-31T07:28:27;4.60;;;1.98;;
6348;SDS011;3207;42.648;23.406;2023-07-31T07:30:54;2.47;;;2.08;;
6348;SDS011;3207;42.648;23.406;2023-07-31T07:33:21;2.55;;;2.03;;
6348;SDS011;3207;42.648;23.406;2023-07-31T07:35:48;3.55;;;2.20;;
6348;SDS011;3207;42.648;23.406;2023-07-31T07:38:14;2.60;;;2.30;;
6348;SDS011;3207;42.648;23.406;2023-07-31T07:40:41;4.35;;;2.17;;
6348;SDS011;3207;42.648;23.406;2023-07-31T07:43:08;2.30;;;2.08;;
6348;SDS011;3207;42.648;23.406;2023-07-31T07:45:36;2.80;;;2.35;;
6348;SDS011;3207;42.648;23.406;2023-07-31T07:48:03;3.80;;;2.92;;
6348;SDS011;3207;42.648;23.406;2023-07-31T07:50:30;2.95;;;2.30;;
6348;SDS011;3207;42.648;23.406;2023-07-31T07:52:57;3.53;;;2.20;;
6348;SDS011;3207;42.648;23.406;2023-07-31T07:55:24;2.85;;;2.45;;
6348;SDS011;3207;42.648;23.406;2023-07-31T07:57:51;2.97;;;2.65;;
6348;SDS011;3207;42.648;23.406;2023-07-31T08:00:17;5.40;;;2.50;;
6348;SDS011;3207;42.648;23.406;2023-07-31T08:02:45;2.65;;;2.45;;
6348;SDS011;3207;42.648;23.406;2023-07-31T08:05:12;3.15;;;2.53;;
6348;SDS011;3207;42.648;23.406;2023-07-31T08:07:39;3.28;;;2.13;;
6348;SDS011;3207;42.648;23.406;2023-07-31T08:10:06;5.05;;;2.70;;
6348;SDS011;3207;42.648;23.406;2023-07-31T08:12:33;2.92;;;2.42;;
6348;SDS011;3207;42.648;23.406;2023-07-31T08:15:00;3.13;;;2.42;;
6348;SDS011;3207;42.648;23.406;2023-07-31T08:17:27;2.85;;;2.30;;
6348;SDS011;3207;42.648;23.406;2023-07-31T08:19:56;3.25;;;2.05;;
6348;SDS011;3207;42.648;23.406;2023-07-31T08:22:23;3.45;;;2.55;;
6348;SDS011;3207;42.648;23.406;2023-07-31T08:24:50;2.60;;;2.20;;
6348;SDS011;3207;42.648;23.406;2023-07-31T08:27:17;4.43;;;2.45;;
6348;SDS011;3207;42.648;23.406;2023-07-31T08:29:44;2.75;;;2.42;;
6348;SDS011;3207;42.648;23.406;2023-07-31T08:32:10;3.88;;;2.47;;
6348;SDS011;3207;42.648;23.406;2023-07-31T08:34:37;2.60;;;2.40;;
6348;SDS011;3207;42.648;23.406;2023-07-31T08:37:05;3.45;;;2.40;;
6348;SDS011;3207;42.648;23.406;2023-07-31T08:39:32;5.22;;;2.50;;
6348;SDS011;3207;42.648;23.406;2023-07-31T08:41:59;8.32;;;2.55;;
6348;SDS011;3207;42.648;23.406;2023-07-31T08:44:26;2.88;;;2.47;;
6348;SDS011;3207;42.648;23.406;2023-07-31T08:46:53;2.60;;;2.25;;
6348;SDS011;3207;42.648;23.406;2023-07-31T08:49:21;3.42;;;2.80;;
6348;SDS011;3207;42.648;23.406;2023-07-31T08:51:49;5.45;;;2.40;;
6348;SDS011;3207;42.648;23.406;2023-07-31T08:54:18;2.78;;;2.58;;
6348;SDS011;3207;42.648;23.406;2023-07-31T08:56:45;2.97;;;2.25;;
6348;SDS011;3207;42.648;23.406;2023-07-31T08:59:12;3.17;;;2.55;;
6348;SDS011;3207;42.648;23.406;2023-07-31T09:01:43;3.70;;;2.70;;
6348;SDS011;3207;42.648;23.406;2023-07-31T09:04:16;2.47;;;2.28;;
6348;SDS011;3207;42.648;23.406;2023-07-31T09:06:46;2.67;;;2.47;;
6348;SDS011;3207;42.648;23.406;2023-07-31T09:09:14;5.00;;;2.42;;
6348;SDS011;3207;42.648;23.406;2023-07-31T09:11:42;2.47;;;2.10;;
6348;SDS011;3207;42.648;23.406;2023-07-31T09:14:09;4.10;;;2.53;;
6348;SDS011;3207;42.648;23.406;2023-07-31T09:16:43;4.32;;;2.42;;
6348;SDS011;3207;42.648;23.406;2023-07-31T09:19:24;3.30;;;3.00;;
6348;SDS011;3207;42.648;23.406;2023-07-31T09:21:52;3.72;;;2.20;;
6348;SDS011;3207;42.648;23.406;2023-07-31T09:24:24;3.08;;;2.78;;
6348;SDS011;3207;42.648;23.406;2023-07-31T09:26:54;2.50;;;2.30;;
6348;SDS011;3207;42.648;23.406;2023-07-31T09:29:22;3.45;;;2.67;;
6348;SDS011;3207;42.648;23.406;2023-07-31T09:31:50;3.60;;;2.72;;
6348;SDS011;3207;42.648;23.406;2023-07-31T09:34:17;2.50;;;2.30;;
6348;SDS011;3207;42.648;23.406;2023-07-31T09:36:44;3.15;;;2.45;;
6348;SDS011;3207;42.648;23.406;2023-07-31T09:39:12;3.47;;;2.72;;
6348;SDS011;3207;42.648;23.406;2023-07-31T09:41:42;3.53;;;2.53;;
6348;SDS011;3207;42.648;23.406;2023-07-31T09:44:12;2.50;;;2.22;;
6348;SDS011;3207;42.648;23.406;2023-07-31T09:46:39;2.22;;;2.00;;
6348;SDS011;3207;42.648;23.406;2023-07-31T09:49:07;5.38;;;2.65;;
6348;SDS011;3207;42.648;23.406;2023-07-31T09:51:35;3.85;;;2.88;;
6348;SDS011;3207;42.648;23.406;2023-07-31T09:54:08;3.47;;;2.38;;
6348;SDS011;3207;42.648;23.406;2023-07-31T09:56:37;3.22;;;2.30;;
6348;SDS011;3207;42.648;23.406;2023-07-31T09:59:10;5.50;;;2.47;;
6348;SDS011;3207;42.648;23.406;2023-07-31T10:01:40;5.88;;;2.42;;
6348;SDS011;3207;42.648;23.406;2023-07-31T10:04:07;3.00;;;2.42;;
6348;SDS011;3207;42.648;23.406;2023-07-31T10:06:35;2.58;;;2.38;;
6348;SDS011;3207;42.648;23.406;2023-07-31T10:09:03;3.83;;;2.47;;
6348;SDS011;3207;42.648;23.406;2023-07-31T10:11:32;3.08;;;2.33;;
6348;SDS011;3207;42.648;23.406;2023-07-31T10:14:04;3.50;;;2.33;;
6348;SDS011;3207;42.648;23.406;2023-07-31T10:16:34;2.90;;;2.20;;
6348;SDS011;3207;42.648;23.406;2023-07-31T10:19:04;2.60;;;2.30;;
6348;SDS011;3207;42.648;23.406;2023-07-31T10:21:33;2.65;;;2.35;;
6348;SDS011;3207;42.648;23.406;2023-07-31T10:24:01;3.20;;;2.90;;
6348;SDS011;3207;42.648;23.406;2023-07-31T10:26:30;4.35;;;3.25;;
6348;SDS011;3207;42.648;23.406;2023-07-31T10:28:58;4.30;;;2.60;;
6348;SDS011;3207;42.648;23.406;2023-07-31T10:31:25;2.85;;;2.65;;
6348;SDS011;3207;42.648;23.406;2023-07-31T10:33:55;5.43;;;3.15;;
6348;SDS011;3207;42.648;23.406;2023-07-31T10:36:23;2.88;;;2.67;;
6348;SDS011;3207;42.648;23.406;2023-07-31T10:38:50;4.00;;;2.58;;
6348;SDS011;3207;42.648;23.406;2023-07-31T10:41:17;2.50;;;2.30;;
6348;SDS011;3207;42.648;23.406;2023-07-31T10:43:45;2.47;;;2.28;;
6348;SDS011;3207;42.648;23.406;2023-07-31T10:46:13;4.90;;;2.78;;
6348;SDS011;3207;42.648;23.406;2023-07-31T10:48:40;2.80;;;2.60;;
6348;SDS011;3207;42.648;23.406;2023-07-31T10:51:09;2.75;;;2.42;;
6348;SDS011;3207;42.648;23.406;2023-07-31T10:53:38;3.85;;;2.55;;
6348;SDS011;3207;42.648;23.406;2023-07-31T10:56:07;2.80;;;2.42;;
6348;SDS011;3207;42.648;23.406;2023-07-31T10:58:34;2.55;;;2.35;;
6348;SDS011;3207;42.648;23.406;2023-07-31T11:01:03;3.25;;;2.33;;
6348;SDS011;3207;42.648;23.406;2023-07-31T11:03:40;3.33;;;2.78;;
6348;SDS011;3207;42.648;23.406;2023-07-31T11:06:09;3.08;;;2.15;;
6348;SDS011;3207;42.648;23.406;2023-07-31T11:08:41;2.50;;;2.30;;
6348;SDS011;3207;42.648;23.406;2023-07-31T11:11:09;6.35;;;2.70;;
6348;SDS011;3207;42.648;23.406;2023-07-31T11:13:41;2.53;;;2.33;;
6348;SDS011;3207;42.648;23.406;2023-07-31T11:16:12;2.97;;;2.40;;
6348;SDS011;3207;42.648;23.406;2023-07-31T11:18:40;4.03;;;2.42;;
6348;SDS011;3207;42.648;23.406;2023-07-31T11:21:11;2.67;;;2.47;;
6348;SDS011;3207;42.648;23.406;2023-07-31T11:23:38;2.38;;;2.10;;
6348;SDS011;3207;42.648;23.406;2023-07-31T11:26:05;2.65;;;2.45;;
6348;SDS011;3207;42.648;23.406;2023-07-31T11:28:33;2.92;;;2.72;;
6348;SDS011;3207;42.648;23.406;2023-07-31T11:31:01;2.65;;;2.35;;
6348;SDS011;3207;42.648;23.406;2023-07-31T11:33:29;2.38;;;2.17;;
6348;SDS011;3207;42.648;23.406;2023-07-31T11:35:56;2.63;;;2.40;;
6348;SDS011;3207;42.648;23.406;2023-07-31T11:38:25;3.25;;;2.38;;
6348;SDS011;3207;42.648;23.406;2023-07-31T11:40:53;2.90;;;2.70;;
6348;SDS011;3207;42.648;23.406;2023-07-31T11:43:20;3.45;;;2.40;;
6348;SDS011;3207;42.648;23.406;2023-07-31T11:45:49;2.85;;;2.58;;
6348;SDS011;3207;42.648;23.406;2023-07-31T11:48:21;5.20;;;3.03;;
6348;SDS011;3207;42.648;23.406;2023-07-31T11:50:50;3.10;;;2.65;;
6348;SDS011;3207;42.648;23.406;2023-07-31T11:53:19;4.60;;;2.55;;
6348;SDS011;3207;42.648;23.406;2023-07-31T11:55:52;3.80;;;2.72;;
6348;SDS011;3207;42.648;23.406;2023-07-31T11:58:22;3.35;;;2.58;;
6348;SDS011;3207;42.648;23.406;2023-07-31T12:00:49;3.53;;;2.90;;
6348;SDS011;3207;42.648;23.406;2023-07-31T12:03:16;2.95;;;2.75;;
6348;SDS011;3207;42.648;23.406;2023-07-31T12:05:44;2.50;;;2.30;;
6348;SDS011;3207;42.648;23.406;2023-07-31T12:08:13;2.58;;;2.38;;
6348;SDS011;3207;42.648;23.406;2023-07-31T12:10:41;4.72;;;2.90;;
6348;SDS011;3207;42.648;23.406;2023-07-31T12:13:11;2.72;;;2.53;;
6348;SDS011;3207;42.648;23.406;2023-07-31T12:15:46;4.68;;;2.47;;
6348;SDS011;3207;42.648;23.406;2023-07-31T12:18:14;2.60;;;2.40;;
6348;SDS011;3207;42.648;23.406;2023-07-31T12:20:42;2.40;;;2.22;;
6348;SDS011;3207;42.648;23.406;2023-07-31T12:23:14;3.28;;;2.20;;
6348;SDS011;3207;42.648;23.406;2023-07-31T12:25:41;2.85;;;2.65;;
6348;SDS011;3207;42.648;23.406;2023-07-31T12:28:08;3.10;;;2.80;;
6348;SDS011;3207;42.648;23.406;2023-07-31T12:30:40;2.60;;;2.40;;
6348;SDS011;3207;42.648;23.406;2023-07-31T12:33:12;2.25;;;2.05;;
6348;SDS011;3207;42.648;23.406;2023-07-31T12:35:40;2.88;;;2.63;;
6348;SDS011;3207;42.648;23.406;2023-07-31T12:38:11;2.75;;;2.53;;
6348;SDS011;3207;42.648;23.406;2023-07-31T12:40:38;3.20;;;2.58;;
6348;SDS011;3207;42.648;23.406;2023-07-31T12:43:06;2.72;;;2.38;;
6348;SDS011;3207;42.648;23.406;2023-07-31T12:45:34;2.65;;;2.45;;
6348;SDS011;3207;42.648;23.406;2023-07-31T12:48:02;2.70;;;2.50;;
6348;SDS011;3207;42.648;23.406;2023-07-31T12:50:29;2.70;;;2.33;;
6348;SDS011;3207;42.648;23.406;2023-07-31T12:52:56;2.38;;;2.17;;
6348;SDS011;3207;42.648;23.406;2023-07-31T12:55:23;2.80;;;2.55;;
6348;SDS011;3207;42.648;23.406;2023-07-31T12:57:51;3.35;;;2.70;;
6348;SDS011;3207;42.648;23.406;2023-07-31T13:00:17;2.65;;;2.45;;
6348;SDS011;3207;42.648;23.406;2023-07-31T13:02:46;3.78;;;2.13;;
6348;SDS011;3207;42.648;23.406;2023-07-31T13:05:12;2.08;;;1.95;;
6348;SDS011;3207;42.648;23.406;2023-07-31T13:07:39;3.10;;;2.60;;
6348;SDS011;3207;42.648;23.406;2023-07-31T13:10:07;2.60;;;2.40;;
6348;SDS011;3207;42.648;23.406;2023-07-31T13:12:34;2.10;;;2.00;;
6348;SDS011;3207;42.648;23.406;2023-07-31T13:15:01;2.95;;;2.65;;
6348;SDS011;3207;42.648;23.406;2023-07-31T13:17:28;2.50;;;2.30;;
6348;SDS011;3207;42.648;23.406;2023-07-31T13:19:56;2.55;;;2.35;;
6348;SDS011;3207;42.648;23.406;2023-07-31T13:22:23;3.50;;;2.53;;
6348;SDS011;3207;42.648;23.406;2023-07-31T13:24:50;2.78;;;2.55;;
6348;SDS011;3207;42.648;23.406;2023-07-31T13:27:16;2.60;;;2.40;;
6348;SDS011;3207;42.648;23.406;2023-07-31T13:29:46;2.60;;;2.40;;
6348;SDS011;3207;42.648;23.406;2023-07-31T13:32:13;2.95;;;2.63;;
6348;SDS011;3207;42.648;23.406;2023-07-31T13:34:40;2.40;;;2.17;;
6348;SDS011;3207;42.648;23.406;2023-07-31T13:37:08;2.10;;;2.00;;
6348;SDS011;3207;42.648;23.406;2023-07-31T13:39:35;3.40;;;2.38;;
6348;SDS011;3207;42.648;23.406;2023-07-31T13:42:02;2.35;;;2.22;;
6348;SDS011;3207;42.648;23.406;2023-07-31T13:44:31;2.65;;;2.42;;
6348;SDS011;3207;42.648;23.406;2023-07-31T13:46:58;2.78;;;2.58;;
6348;SDS011;3207;42.648;23.406;2023-07-31T13:49:25;2.53;;;2.33;;
6348;SDS011;3207;42.648;23.406;2023-07-31T13:51:52;2.83;;;2.55;;
6348;SDS011;3207;42.648;23.406;2023-07-31T13:54:21;3.92;;;2.85;;
6348;SDS011;3207;42.648;23.406;2023-07-31T13:56:49;4.22;;;3.03;;
6348;SDS011;3207;42.648;23.406;2023-07-31T13:59:16;3.35;;;2.60;;
6348;SDS011;3207;42.648;23.406;2023-07-31T14:01:43;2.67;;;2.47;;
6348;SDS011;3207;42.648;23.406;2023-07-31T14:04:10;2.47;;;2.28;;
6348;SDS011;3207;42.648;23.406;2023-07-31T14:06:37;2.45;;;2.25;;
6348;SDS011;3207;42.648;23.406;2023-07-31T14:09:04;3.42;;;3.13;;
6348;SDS011;3207;42.648;23.406;2023-07-31T14:11:33;2.72;;;2.17;;
6348;SDS011;3207;42.648;23.406;2023-07-31T14:13:59;2.35;;;2.15;;
6348;SDS011;3207;42.648;23.406;2023-07-31T14:16:27;2.00;;;1.90;;
6348;SDS011;3207;42.648;23.406;2023-07-31T14:18:54;2.70;;;2.50;;
6348;SDS011;3207;42.648;23.406;2023-07-31T14:21:21;3.05;;;2.35;;
6348;SDS011;3207;42.648;23.406;2023-07-31T14:23:48;2.20;;;1.98;;
6348;SDS011;3207;42.648;23.406;2023-07-31T14:26:15;2.28;;;2.13;;
6348;SDS011;3207;42.648;23.406;2023-07-31T14:28:43;3.25;;;2.38;;
6348;SDS011;3207;42.648;23.406;2023-07-31T14:31:10;2.67;;;2.08;;
6348;SDS011;3207;42.648;23.406;2023-07-31T14:33:37;2.83;;;2.58;;
6348;SDS011;3207;42.648;23.406;2023-07-31T14:36:04;3.05;;;2.20;;
6348;SDS011;3207;42.648;23.406;2023-07-31T14:38:31;2.50;;;2.38;;
6348;SDS011;3207;42.648;23.406;2023-07-31T14:40:58;2.55;;;2.35;;
6348;SDS011;3207;42.648;23.406;2023-07-31T14:43:25;3.08;;;2.55;;
6348;SDS011;3207;42.648;23.406;2023-07-31T14:45:53;2.85;;;2.30;;
6348;SDS011;3207;42.648;23.406;2023-07-31T14:48:22;2.60;;;2.40;;
6348;SDS011;3207;42.648;23.406;2023-07-31T14:50:49;2.85;;;2.50;;
6348;SDS011;3207;42.648;23.406;2023-07-31T14:53:16;3.70;;;2.70;;
6348;SDS011;3207;42.648;23.406;2023-07-31T14:55:43;4.13;;;2.78;;
6348;SDS011;3207;42.648;23.406;2023-07-31T14:58:09;4.65;;;2.50;;
6348;SDS011;3207;42.648;23.406;2023-07-31T15:00:38;2.88;;;2.67;;
6348;SDS011;3207;42.648;23.406;2023-07-31T15:03:07;2.38;;;2.20;;